createdAt,value
2023-05-12T00:00:22.659Z,82.12
2023-05-12T00:01:22.693Z,79.61
2023-05-12T00:02:22.820Z,81.83
2023-05-12T00:03:22.928Z,79.62
2023-05-12T00:04:22.909Z,79.14
2023-05-12T00:05:22.964Z,80.59
2023-05-12T00:06:23.010Z,78.67
2023-05-12T00:07:23.080Z,81.23
2023-05-12T00:08:23.137Z,79.35
2023-05-12T00:09:23.191Z,79.70
2023-05-12T00:10:24.972Z,79.50
2023-05-12T00:11:23.321Z,81.02
2023-05-12T00:12:23.390Z,78.54
2023-05-12T00:13:23.559Z,82.34
2023-05-12T00:14:23.531Z,82.29
2023-05-12T00:15:23.679Z,79.43
2023-05-12T00:16:23.726Z,80.12
2023-05-12T00:17:23.764Z,77.14
2023-05-12T00:18:23.837Z,78.76
2023-05-12T00:19:23.871Z,80.75
2023-05-12T00:20:23.949Z,79.45
2023-05-12T00:21:24.021Z,79.18
2023-05-12T00:22:24.069Z,81.86
2023-05-12T00:23:24.125Z,76.50
2023-05-12T00:24:24.199Z,80.56
2023-05-12T00:25:24.317Z,80.44
2023-05-12T00:26:24.303Z,79.40
2023-05-12T00:27:24.362Z,79.41
2023-05-12T00:28:24.343Z,80.87
2023-05-12T00:29:24.371Z,81.49
2023-05-12T00:30:24.390Z,80.29
2023-05-12T00:31:24.455Z,78.69
2023-05-12T00:32:24.468Z,80.58
2023-05-12T00:33:24.423Z,79.52
2023-05-12T00:34:24.452Z,80.82
2023-05-12T00:35:24.483Z,79.69
2023-05-12T00:36:24.556Z,78.51
2023-05-12T00:37:24.601Z,80.68
2023-05-12T00:38:24.843Z,79.14
2023-05-12T00:39:24.735Z,77.46
2023-05-12T00:40:24.805Z,81.86
2023-05-12T00:41:25.017Z,78.73
2023-05-12T00:42:24.975Z,77.94
2023-05-12T00:43:25.015Z,79.92
2023-05-12T00:44:25.028Z,78.54
2023-05-12T00:45:25.096Z,79.78
2023-05-12T00:46:25.194Z,79.67
2023-05-12T00:47:25.290Z,77.78
2023-05-12T00:48:25.302Z,78.37
2023-05-12T00:49:25.377Z,80.64
2023-05-12T00:50:25.412Z,79.97
2023-05-12T00:51:25.478Z,76.93
2023-05-12T00:52:25.534Z,80.43
2023-05-12T00:53:27.764Z,76.83
2023-05-12T00:54:26.602Z,77.01
2023-05-12T00:55:25.576Z,77.32
2023-05-12T00:56:25.582Z,78.48
2023-05-12T00:57:25.590Z,77.15
2023-05-12T00:58:25.580Z,77.05
2023-05-12T00:59:25.600Z,78.56
2023-05-12T01:00:25.562Z,78.10
2023-05-12T01:01:25.654Z,78.60
2023-05-12T01:02:25.703Z,78.44
2023-05-12T01:03:25.870Z,78.60
2023-05-12T01:04:25.776Z,78.64
2023-05-12T01:05:25.829Z,79.40
2023-05-12T01:06:25.911Z,77.97
2023-05-12T01:07:25.964Z,78.15
2023-05-12T01:08:26.012Z,79.96
2023-05-12T01:09:26.084Z,78.23
2023-05-12T01:10:26.139Z,77.50
2023-05-12T01:11:26.217Z,76.89
2023-05-12T01:12:26.267Z,79.60
2023-05-12T01:13:26.331Z,78.50
2023-05-12T01:14:26.401Z,78.08
2023-05-12T01:15:26.468Z,76.67
2023-05-12T01:16:26.540Z,77.01
2023-05-12T01:17:26.679Z,78.64
2023-05-12T01:18:26.764Z,79.20
2023-05-12T01:19:26.743Z,76.87
2023-05-12T01:20:26.786Z,76.19
2023-05-12T01:21:26.887Z,78.13
2023-05-12T01:22:26.935Z,77.57
2023-05-12T01:23:27.002Z,79.42
2023-05-12T01:24:27.013Z,79.58
2023-05-12T01:25:27.000Z,79.17
2023-05-12T01:26:27.004Z,79.56
2023-05-12T01:27:26.993Z,78.65
2023-05-12T01:28:26.988Z,76.87
2023-05-12T01:29:27.000Z,77.14
2023-05-12T01:30:26.997Z,79.55
2023-05-12T01:31:27.010Z,76.21
2023-05-12T01:32:27.044Z,78.65
2023-05-12T01:33:26.985Z,76.76
2023-05-12T01:34:27.004Z,77.68
2023-05-12T01:35:27.012Z,74.57
2023-05-12T01:36:27.007Z,77.29
2023-05-12T01:37:27.102Z,75.59
2023-05-12T01:38:27.125Z,77.33
2023-05-12T01:39:27.190Z,76.98
2023-05-12T01:40:27.264Z,78.56
2023-05-12T01:41:27.317Z,76.99
2023-05-12T01:42:27.389Z,79.06
2023-05-12T01:43:27.461Z,77.79
2023-05-12T01:44:27.498Z,75.31
2023-05-12T01:45:27.556Z,75.47
2023-05-12T01:46:27.709Z,77.32
2023-05-12T01:47:27.733Z,75.66
2023-05-12T01:48:27.759Z,74.76
2023-05-12T01:49:27.822Z,76.29
2023-05-12T01:50:27.897Z,76.52
2023-05-12T01:51:27.950Z,77.49
2023-05-12T01:52:28.024Z,76.85
2023-05-12T01:53:28.089Z,75.27
2023-05-12T01:54:28.142Z,75.74
2023-05-12T01:55:28.210Z,74.71
2023-05-12T01:56:28.262Z,74.48
2023-05-12T01:57:28.308Z,75.41
2023-05-12T01:58:28.371Z,78.20
2023-05-12T01:59:28.407Z,76.89
2023-05-12T02:00:28.479Z,73.20
2023-05-12T02:01:28.580Z,72.62
2023-05-12T02:02:28.652Z,75.90
2023-05-12T02:03:28.797Z,76.48
2023-05-12T02:04:28.621Z,71.61
2023-05-12T02:05:28.657Z,73.03
2023-05-12T02:06:28.688Z,75.89
2023-05-12T02:07:28.739Z,72.31
2023-05-12T02:08:28.753Z,74.54
2023-05-12T02:09:28.798Z,76.40
2023-05-12T02:10:28.835Z,76.70
2023-05-12T02:11:28.904Z,73.07
2023-05-12T02:12:28.939Z,75.74
2023-05-12T02:13:29.027Z,73.55
2023-05-12T02:14:29.047Z,76.00
2023-05-12T02:15:29.051Z,72.84
2023-05-12T02:16:29.176Z,76.42
2023-05-12T02:17:29.138Z,75.25
2023-05-12T02:18:29.141Z,76.57
2023-05-12T02:19:29.179Z,74.85
2023-05-12T02:20:29.251Z,72.32
2023-05-12T02:21:29.340Z,72.31
2023-05-12T02:22:29.389Z,75.07
2023-05-12T02:23:29.442Z,72.60
2023-05-12T02:24:29.550Z,73.04
2023-05-12T02:25:29.583Z,72.39
2023-05-12T02:26:29.658Z,74.51
2023-05-12T02:27:29.718Z,74.44
2023-05-12T02:28:29.793Z,73.36
2023-05-12T02:29:29.857Z,71.69
2023-05-12T02:30:29.912Z,74.13
2023-05-12T02:31:29.984Z,73.18
2023-05-12T02:32:30.024Z,74.85
2023-05-12T02:33:30.084Z,71.57
2023-05-12T02:34:30.143Z,72.98
2023-05-12T02:35:30.185Z,72.27
2023-05-12T02:36:30.246Z,72.71
2023-05-12T02:37:30.292Z,75.30
2023-05-12T02:38:30.330Z,71.40
2023-05-12T02:39:30.349Z,73.80
2023-05-12T02:40:30.382Z,72.48
2023-05-12T02:41:30.412Z,70.64
2023-05-12T02:42:30.433Z,71.90
2023-05-12T02:43:30.472Z,73.35
2023-05-12T02:44:30.509Z,73.12
2023-05-12T02:45:30.587Z,72.78
2023-05-12T02:46:30.611Z,73.79
2023-05-12T02:47:30.701Z,70.38
2023-05-12T02:48:30.752Z,73.09
2023-05-12T02:49:30.832Z,71.16
2023-05-12T02:50:30.922Z,70.57
2023-05-12T02:51:30.973Z,73.47
2023-05-12T02:52:31.020Z,71.18
2023-05-12T02:53:31.092Z,72.25
2023-05-12T02:54:31.288Z,71.65
2023-05-12T02:55:31.286Z,71.97
2023-05-12T02:56:33.951Z,71.21
2023-05-12T02:57:31.293Z,72.46
2023-05-12T02:58:31.285Z,70.40
2023-05-12T02:59:31.288Z,71.82
2023-05-12T03:00:31.994Z,73.11
2023-05-12T03:01:31.351Z,74.02
2023-05-12T03:02:31.363Z,73.12
2023-05-12T03:03:31.433Z,71.33
2023-05-12T03:04:31.278Z,70.64
2023-05-12T03:05:31.352Z,73.04
2023-05-12T03:06:31.283Z,72.47
2023-05-12T03:07:31.270Z,68.35
2023-05-12T03:08:31.425Z,71.99
2023-05-12T03:09:31.272Z,68.72
2023-05-12T03:10:31.274Z,72.70
2023-05-12T03:11:31.290Z,72.82
2023-05-12T03:12:31.337Z,73.16
2023-05-12T03:13:31.360Z,72.20
2023-05-12T03:14:31.297Z,72.86
2023-05-12T03:15:31.287Z,72.81
2023-05-12T03:16:31.286Z,73.27
2023-05-12T03:17:31.302Z,73.20
2023-05-12T03:18:31.368Z,73.43
2023-05-12T03:19:31.335Z,74.06
2023-05-12T03:20:31.269Z,72.68
2023-05-12T03:21:31.322Z,74.40
2023-05-12T03:22:31.372Z,71.31
2023-05-12T03:23:31.349Z,73.52
2023-05-12T03:24:31.411Z,69.48
2023-05-12T03:25:31.543Z,69.85
2023-05-12T03:26:31.620Z,72.35
2023-05-12T03:27:31.638Z,70.80
2023-05-12T03:28:31.695Z,71.66
2023-05-12T03:29:31.657Z,71.61
2023-05-12T03:30:31.740Z,70.64
2023-05-12T03:31:31.878Z,66.14
2023-05-12T03:32:31.913Z,72.07
2023-05-12T03:33:31.948Z,72.12
2023-05-12T03:34:31.990Z,72.42
2023-05-12T03:35:32.047Z,68.96
2023-05-12T03:36:32.120Z,67.66
2023-05-12T03:37:32.179Z,72.02
2023-05-12T03:38:32.253Z,66.39
2023-05-12T03:39:32.342Z,71.88
2023-05-12T03:40:32.408Z,72.06
2023-05-12T03:41:32.459Z,70.81
2023-05-12T03:42:32.497Z,70.56
2023-05-12T03:43:32.549Z,69.87
2023-05-12T03:44:32.602Z,71.43
2023-05-12T03:45:32.653Z,70.84
2023-05-12T03:46:32.746Z,70.89
2023-05-12T03:47:32.844Z,71.58
2023-05-12T03:48:32.829Z,68.87
2023-05-12T03:49:32.880Z,70.34
2023-05-12T03:50:32.890Z,70.42
2023-05-12T03:51:32.901Z,70.90
2023-05-12T03:52:32.910Z,70.88
2023-05-12T03:53:32.919Z,71.35
2023-05-12T03:54:32.930Z,70.25
2023-05-12T03:55:32.934Z,71.30
2023-05-12T03:56:32.952Z,71.19
2023-05-12T03:57:33.096Z,70.73
2023-05-12T03:58:33.004Z,69.75
2023-05-12T03:59:33.069Z,69.89
2023-05-12T04:00:33.122Z,70.39
2023-05-12T04:01:33.270Z,69.49
2023-05-12T04:02:33.333Z,69.07
2023-05-12T04:03:33.374Z,68.36
2023-05-12T04:04:33.351Z,70.31
2023-05-12T04:05:33.469Z,65.11
2023-05-12T04:06:33.470Z,69.36
2023-05-12T04:07:33.492Z,70.08
2023-05-12T04:08:33.559Z,70.62
2023-05-12T04:09:33.640Z,67.81
2023-05-12T04:10:33.680Z,70.60
2023-05-12T04:11:33.751Z,70.45
2023-05-12T04:12:33.802Z,69.30
2023-05-12T04:13:33.880Z,69.65
2023-05-12T04:14:42.271Z,67.58
2023-05-12T04:15:35.111Z,67.65
2023-05-12T04:16:33.980Z,68.03
2023-05-12T04:17:33.969Z,68.57
2023-05-12T04:18:33.974Z,68.93
2023-05-12T04:19:33.938Z,67.99
2023-05-12T04:20:33.941Z,72.01
2023-05-12T04:21:33.958Z,70.22
2023-05-12T04:22:33.960Z,70.36
2023-05-12T04:23:33.968Z,70.61
2023-05-12T04:24:33.992Z,70.69
2023-05-12T04:25:33.985Z,70.88
2023-05-12T04:26:33.989Z,69.81
2023-05-12T04:27:34.004Z,71.27
2023-05-12T04:28:33.994Z,68.97
2023-05-12T04:29:34.007Z,70.00
2023-05-12T04:30:33.992Z,69.52
2023-05-12T04:31:34.094Z,67.90
2023-05-12T04:32:34.131Z,69.16
2023-05-12T04:33:34.115Z,68.02
2023-05-12T04:34:34.189Z,68.26
2023-05-12T04:35:34.240Z,68.14
2023-05-12T04:36:34.271Z,69.43
2023-05-12T04:37:34.307Z,68.82
2023-05-12T04:38:34.320Z,65.05
2023-05-12T04:39:34.354Z,68.84
2023-05-12T04:40:35.123Z,70.19
2023-05-12T04:41:34.399Z,69.18
2023-05-12T04:42:34.429Z,67.18
2023-05-12T04:44:34.453Z,68.56
2023-05-12T04:45:34.474Z,69.70
2023-05-12T04:46:34.500Z,68.48
2023-05-12T04:47:34.491Z,69.99
2023-05-12T04:48:34.452Z,68.08
2023-05-12T04:49:34.463Z,66.29
2023-05-12T04:50:34.461Z,67.88
2023-05-12T04:51:34.465Z,67.04
2023-05-12T04:52:34.473Z,68.87
2023-05-12T04:53:34.488Z,67.32
2023-05-12T04:54:34.468Z,67.96
2023-05-12T04:55:34.459Z,67.77
2023-05-12T04:56:34.459Z,66.12
2023-05-12T04:57:34.501Z,68.81
2023-05-12T04:58:34.447Z,66.87
2023-05-12T04:59:34.478Z,66.52
2023-05-12T05:00:34.473Z,66.19
2023-05-12T05:01:34.513Z,66.51
2023-05-12T05:02:34.566Z,66.39
2023-05-12T05:03:34.526Z,66.89
2023-05-12T05:04:34.468Z,67.36
2023-05-12T05:05:34.473Z,68.09
2023-05-12T05:06:34.475Z,68.20
2023-05-12T05:07:34.496Z,68.36
2023-05-12T05:08:34.482Z,67.90
2023-05-12T05:09:36.251Z,66.81
2023-05-12T05:10:34.557Z,66.70
2023-05-12T05:11:34.628Z,69.22
2023-05-12T05:12:34.723Z,68.85
2023-05-12T05:13:34.789Z,68.17
2023-05-12T05:14:34.849Z,69.10
2023-05-12T05:15:34.950Z,69.61
2023-05-12T05:16:35.006Z,70.24
2023-05-12T05:17:35.137Z,66.51
2023-05-12T05:18:35.180Z,70.19
2023-05-12T05:19:47.709Z,67.68
2023-05-12T05:20:40.676Z,67.87
2023-05-12T05:21:36.240Z,67.95
2023-05-12T05:22:35.218Z,68.49
2023-05-12T05:23:35.214Z,69.60
2023-05-12T05:24:35.289Z,70.59
2023-05-12T05:25:35.218Z,72.53
2023-05-12T05:26:35.221Z,72.11
2023-05-12T05:27:35.300Z,71.40
2023-05-12T05:28:35.256Z,70.52
2023-05-12T05:29:35.353Z,71.27
2023-05-12T05:30:35.365Z,71.58
2023-05-12T05:31:35.359Z,72.13
2023-05-12T05:32:35.302Z,68.39
2023-05-12T05:33:35.283Z,71.13
2023-05-12T05:34:35.372Z,71.07
2023-05-12T05:35:35.282Z,69.69
2023-05-12T05:36:35.418Z,70.85
2023-05-12T05:37:35.589Z,68.46
2023-05-12T05:38:35.287Z,76.15
2023-05-12T05:39:35.231Z,79.17
2023-05-12T05:40:48.773Z,78.73
2023-05-12T05:41:36.214Z,79.04
2023-05-12T05:42:35.306Z,81.74
2023-05-12T05:43:35.263Z,90.24
2023-05-12T05:44:35.332Z,104.17
2023-05-12T05:45:35.312Z,130.26
2023-05-12T05:46:35.233Z,144.52
2023-05-12T05:47:35.336Z,157.12
2023-05-12T05:48:35.208Z,169.73
2023-05-12T05:49:35.290Z,170.15
2023-05-12T05:50:35.155Z,172.90
2023-05-12T05:51:35.200Z,179.54
2023-05-12T05:52:35.162Z,193.90
2023-05-12T05:53:35.150Z,220.72
2023-05-12T05:54:35.191Z,232.38
2023-05-12T05:55:35.126Z,236.77
2023-05-12T05:56:35.147Z,243.30
2023-05-12T05:57:35.260Z,250.00
2023-05-12T05:58:35.094Z,247.92
2023-05-12T05:59:35.169Z,250.00
2023-05-12T06:00:35.159Z,250.00
2023-05-12T06:01:35.152Z,245.84
2023-05-12T06:02:35.359Z,249.94
2023-05-12T06:03:35.195Z,250.11
2023-05-12T06:04:35.121Z,251.30
2023-05-12T06:05:35.078Z,254.09
2023-05-12T06:06:35.138Z,262.59
2023-05-12T06:07:35.177Z,276.77
2023-05-12T06:08:35.072Z,251.30
2023-05-12T06:09:35.102Z,256.77
2023-05-12T06:10:35.009Z,267.78
2023-05-12T06:11:35.099Z,284.95
2023-05-12T06:12:34.984Z,307.79
2023-05-12T06:13:34.970Z,289.17
2023-05-12T06:14:34.981Z,268.59
2023-05-12T06:15:34.946Z,250.00
2023-05-12T06:16:34.950Z,250.00
2023-05-12T06:17:34.947Z,249.36
2023-05-12T06:18:34.940Z,249.53
2023-05-12T06:19:34.900Z,248.95
2023-05-12T06:20:34.864Z,250.00
2023-05-12T06:21:34.907Z,250.00
2023-05-12T06:22:34.902Z,250.00
2023-05-12T06:23:34.856Z,249.57
2023-05-12T06:24:34.840Z,247.96
2023-05-12T06:25:34.842Z,250.20
2023-05-12T06:26:34.826Z,249.87
2023-05-12T06:27:34.880Z,249.50
2023-05-12T06:28:34.905Z,249.86
2023-05-12T06:29:34.876Z,250.00
2023-05-12T06:30:34.882Z,249.54
2023-05-12T06:31:34.915Z,249.76
2023-05-12T06:32:34.923Z,250.82
2023-05-12T06:33:34.876Z,249.44
2023-05-12T06:34:34.892Z,249.59
2023-05-12T06:35:34.924Z,250.39
2023-05-12T06:36:34.882Z,252.48
2023-05-12T06:37:34.820Z,255.58
2023-05-12T06:38:34.790Z,259.71
2023-05-12T06:39:34.752Z,249.84
2023-05-12T06:40:34.766Z,250.00
2023-05-12T06:41:34.734Z,246.82
2023-05-12T06:42:34.735Z,247.55
2023-05-12T06:43:34.706Z,248.32
2023-05-12T06:44:34.689Z,246.29
2023-05-12T06:45:34.658Z,245.02
2023-05-12T06:46:34.692Z,242.58
2023-05-12T06:47:34.647Z,241.34
2023-05-12T06:48:34.631Z,240.94
2023-05-12T06:49:34.598Z,239.85
2023-05-12T06:50:34.615Z,237.89
2023-05-12T06:51:34.572Z,233.86
2023-05-12T06:52:34.564Z,233.05
2023-05-12T06:53:34.626Z,229.98
2023-05-12T06:54:34.540Z,231.13
2023-05-12T06:55:34.577Z,228.58
2023-05-12T06:56:34.515Z,225.84
2023-05-12T06:57:34.549Z,223.36
2023-05-12T06:58:34.486Z,222.97
2023-05-12T06:59:34.492Z,221.29
2023-05-12T07:00:34.483Z,219.21
2023-05-12T07:01:34.498Z,216.34
2023-05-12T07:02:34.564Z,214.32
2023-05-12T07:03:34.597Z,209.05
2023-05-12T07:04:34.535Z,206.54
2023-05-12T07:05:34.577Z,203.86
2023-05-12T07:06:34.576Z,201.43
2023-05-12T07:07:34.592Z,198.21
2023-05-12T07:08:35.595Z,193.99
2023-05-12T07:09:34.659Z,192.34
2023-05-12T07:10:34.663Z,188.62
2023-05-12T07:11:34.699Z,187.55
2023-05-12T07:12:34.697Z,185.63
2023-05-12T07:13:34.737Z,183.52
2023-05-12T07:14:34.744Z,179.88
2023-05-12T07:15:34.772Z,178.77
2023-05-12T07:16:34.835Z,175.51
2023-05-12T07:17:34.882Z,172.10
2023-05-12T07:18:34.848Z,167.55
2023-05-12T07:19:34.850Z,165.59
2023-05-12T07:20:34.848Z,163.44
2023-05-12T07:21:34.889Z,162.08
2023-05-12T07:22:37.340Z,159.97
2023-05-12T07:23:34.892Z,157.93
2023-05-12T07:24:34.869Z,156.03
2023-05-12T07:25:34.898Z,153.56
2023-05-12T07:26:34.838Z,148.83
2023-05-12T07:27:34.831Z,148.34
2023-05-12T07:28:34.836Z,145.62
2023-05-12T07:29:34.809Z,142.55
2023-05-12T07:30:34.816Z,141.09
2023-05-12T07:31:34.883Z,138.72
2023-05-12T07:32:34.798Z,137.06
2023-05-12T07:33:34.772Z,137.20
2023-05-12T07:34:34.785Z,137.24
2023-05-12T07:35:34.741Z,133.73
2023-05-12T07:36:34.740Z,130.42
2023-05-12T07:37:34.713Z,126.46
2023-05-12T07:38:34.710Z,130.23
2023-05-12T07:39:34.680Z,155.29
2023-05-12T07:40:34.678Z,155.81
2023-05-12T07:41:34.761Z,157.10
2023-05-12T07:42:34.784Z,150.40
2023-05-12T07:43:34.653Z,106.44
2023-05-12T07:44:34.635Z,61.12
2023-05-12T07:45:34.648Z,47.80
2023-05-12T07:46:34.667Z,69.15
2023-05-12T07:47:34.674Z,87.37
2023-05-12T07:48:34.601Z,87.81
2023-05-12T07:49:34.600Z,89.63
2023-05-12T07:50:34.613Z,94.34
2023-05-12T07:51:34.558Z,102.32
2023-05-12T07:52:34.582Z,111.91
2023-05-12T07:53:34.589Z,114.48
2023-05-12T07:54:34.538Z,112.37
2023-05-12T07:55:34.546Z,99.34
2023-05-12T07:56:34.580Z,99.01
2023-05-12T07:57:34.520Z,88.68
2023-05-12T07:58:34.510Z,85.72
2023-05-12T07:59:34.500Z,87.67
2023-05-12T08:00:34.508Z,87.70
2023-05-12T08:01:34.480Z,88.08
2023-05-12T08:02:34.556Z,88.96
2023-05-12T08:03:34.577Z,91.13
2023-05-12T08:04:34.680Z,96.28
2023-05-12T08:05:34.459Z,99.75
2023-05-12T08:06:34.450Z,102.48
2023-05-12T08:07:34.457Z,96.76
2023-05-12T08:08:34.432Z,95.10
2023-05-12T08:09:34.427Z,97.14
2023-05-12T08:10:34.415Z,92.70
2023-05-12T08:11:34.427Z,94.66
2023-05-12T08:12:34.397Z,99.79
2023-05-12T08:13:34.387Z,100.85
2023-05-12T08:14:34.389Z,79.37
2023-05-12T08:15:34.373Z,80.24
2023-05-12T08:16:34.393Z,68.46
2023-05-12T08:17:34.362Z,74.57
2023-05-12T08:18:34.368Z,76.97
2023-05-12T08:19:34.309Z,76.78
2023-05-12T08:20:34.299Z,72.81
2023-05-12T08:21:34.314Z,75.74
2023-05-12T08:22:34.282Z,69.76
2023-05-12T08:23:34.266Z,66.95
2023-05-12T08:24:34.272Z,46.25
2023-05-12T08:25:34.248Z,29.98
2023-05-12T08:26:34.241Z,42.72
2023-05-12T08:27:34.223Z,38.11
2023-05-12T08:28:34.233Z,40.30
2023-05-12T08:29:34.208Z,35.00
2023-05-12T08:30:34.224Z,20.12
2023-05-12T08:31:34.225Z,19.78
2023-05-12T08:32:34.242Z,0.00
2023-05-12T08:33:34.148Z,0.00
2023-05-12T08:34:34.127Z,0.00
2023-05-12T08:35:34.120Z,0.00
2023-05-12T08:36:34.122Z,0.00
2023-05-12T08:37:34.930Z,9.76
2023-05-12T08:38:34.110Z,37.39
2023-05-12T08:39:34.071Z,51.15
2023-05-12T08:40:34.068Z,58.79
2023-05-12T08:41:34.048Z,61.56
2023-05-12T08:42:34.023Z,58.28
2023-05-12T08:43:34.089Z,52.55
2023-05-12T08:44:34.016Z,41.91
2023-05-12T08:45:34.125Z,32.73
2023-05-12T08:46:34.011Z,25.00
2023-05-12T08:47:34.006Z,25.00
2023-05-12T08:48:33.970Z,26.92
2023-05-12T08:49:34.683Z,27.69
2023-05-12T08:50:34.035Z,20.96
2023-05-12T08:51:34.077Z,0.00
2023-05-12T08:52:34.133Z,0.00
2023-05-12T08:53:34.147Z,8.01
2023-05-12T08:54:37.841Z,13.09
2023-05-12T08:55:35.346Z,8.29
2023-05-12T08:57:34.115Z,0.00
2023-05-12T08:58:40.960Z,0.00
2023-05-12T08:59:35.106Z,0.00
2023-05-12T09:00:34.079Z,0.00
2023-05-12T09:01:36.604Z,0.00
2023-05-12T09:02:45.005Z,0.00
2023-05-12T09:03:35.109Z,0.00
2023-05-12T09:04:34.099Z,0.00
2023-05-12T09:05:34.028Z,0.00
2023-05-12T09:06:34.040Z,0.00
2023-05-12T09:07:33.994Z,0.00
2023-05-12T09:08:34.005Z,0.00
2023-05-12T09:09:33.967Z,0.00
2023-05-12T09:10:35.715Z,0.00
2023-05-12T09:11:33.972Z,0.00
2023-05-12T09:12:33.954Z,0.00
2023-05-12T09:13:33.943Z,9.61
2023-05-12T09:14:33.935Z,19.95
2023-05-12T09:15:33.911Z,25.59
2023-05-12T09:16:33.934Z,27.56
2023-05-12T09:17:33.986Z,26.37
2023-05-12T09:18:33.922Z,24.62
2023-05-12T09:19:33.884Z,24.07
2023-05-12T09:20:33.946Z,25.00
2023-05-12T09:21:33.885Z,26.51
2023-05-12T09:22:33.851Z,27.19
2023-05-12T09:23:33.885Z,29.82
2023-05-12T09:24:33.930Z,34.77
2023-05-12T09:25:33.961Z,27.85
2023-05-12T09:26:33.971Z,25.31
2023-05-12T09:27:33.995Z,22.52
2023-05-12T09:28:34.004Z,24.57
2023-05-12T09:29:39.546Z,25.26
2023-05-12T09:30:35.025Z,22.86
2023-05-12T09:31:34.038Z,25.28
2023-05-12T09:32:34.115Z,25.49
2023-05-12T09:33:34.058Z,26.37
2023-05-12T09:34:33.984Z,31.38
2023-05-12T09:35:33.947Z,32.97
2023-05-12T09:36:33.963Z,32.82
2023-05-12T09:37:33.965Z,32.56
2023-05-12T09:38:33.929Z,29.77
2023-05-12T09:39:33.949Z,25.00
2023-05-12T09:40:33.926Z,31.43
2023-05-12T09:41:33.899Z,38.18
2023-05-12T09:42:33.901Z,47.03
2023-05-12T09:43:33.944Z,55.47
2023-05-12T09:44:33.902Z,63.68
2023-05-12T09:45:33.932Z,72.89
2023-05-12T09:46:34.233Z,81.06
2023-05-12T09:47:33.987Z,88.75
2023-05-12T09:48:33.939Z,94.55
2023-05-12T09:49:33.972Z,99.25
2023-05-12T09:50:44.335Z,104.60
2023-05-12T09:51:34.948Z,104.78
2023-05-12T09:52:33.940Z,105.80
2023-05-12T09:53:33.923Z,108.12
2023-05-12T09:54:33.976Z,111.58
2023-05-12T09:55:33.936Z,118.36
2023-05-12T09:56:34.019Z,120.71
2023-05-12T09:57:33.915Z,123.42
2023-05-12T09:58:33.928Z,126.31
2023-05-12T09:59:33.915Z,131.34
2023-05-12T10:01:33.912Z,135.69
2023-05-12T10:02:33.930Z,139.60
2023-05-12T10:03:33.852Z,140.11
2023-05-12T10:04:33.880Z,142.19
2023-05-12T10:05:33.855Z,146.22
2023-05-12T10:06:33.879Z,147.83
2023-05-12T10:07:33.823Z,150.13
2023-05-12T10:08:33.803Z,152.86
2023-05-12T10:09:33.828Z,153.62
2023-05-12T10:10:33.799Z,155.60
2023-05-12T10:11:33.797Z,155.77
2023-05-12T10:12:33.836Z,156.56
2023-05-12T10:13:33.771Z,157.07
2023-05-12T10:14:33.748Z,157.90
2023-05-12T10:15:33.733Z,158.80
2023-05-12T10:16:33.779Z,160.21
2023-05-12T10:17:33.795Z,159.89
2023-05-12T10:18:33.751Z,160.44
2023-05-12T10:19:33.707Z,160.07
2023-05-12T10:20:33.709Z,161.50
2023-05-12T10:21:33.755Z,162.98
2023-05-12T10:22:33.694Z,162.83
2023-05-12T10:23:34.873Z,162.70
2023-05-12T10:24:33.687Z,163.21
2023-05-12T10:25:33.681Z,163.12
2023-05-12T10:26:33.655Z,163.59
2023-05-12T10:27:33.652Z,164.06
2023-05-12T10:28:33.621Z,164.27
2023-05-12T10:29:33.621Z,165.03
2023-05-12T10:30:33.612Z,164.31
2023-05-12T10:31:33.691Z,164.56
2023-05-12T10:32:33.682Z,163.81
2023-05-12T10:33:33.666Z,165.91
2023-05-12T10:34:33.722Z,164.73
2023-05-12T10:35:33.704Z,164.87
2023-05-12T10:36:33.735Z,163.82
2023-05-12T10:37:33.699Z,162.77
2023-05-12T10:38:33.659Z,162.40
2023-05-12T10:39:33.655Z,164.62
2023-05-12T10:40:33.654Z,169.17
2023-05-12T10:41:33.632Z,173.28
2023-05-12T10:42:33.611Z,171.88
2023-05-12T10:43:33.625Z,172.03
2023-05-12T10:44:33.689Z,171.49
2023-05-12T10:45:33.594Z,172.28
2023-05-12T10:46:33.680Z,173.69
2023-05-12T10:47:33.612Z,173.06
2023-05-12T10:48:33.568Z,174.82
2023-05-12T10:49:33.572Z,177.46
2023-05-12T10:50:33.533Z,178.38
2023-05-12T10:51:33.516Z,179.03
2023-05-12T10:52:33.494Z,178.37
2023-05-12T10:53:45.195Z,176.86
2023-05-12T10:54:34.500Z,176.90
2023-05-12T10:55:33.582Z,176.12
2023-05-12T10:56:33.704Z,175.88
2023-05-12T10:57:33.947Z,174.94
2023-05-12T10:58:33.713Z,175.11
2023-05-12T10:59:33.872Z,174.36
2023-05-12T11:00:33.862Z,172.67
2023-05-12T11:01:33.750Z,171.94
2023-05-12T11:02:34.512Z,170.04
2023-05-12T11:03:34.469Z,171.14
2023-05-12T11:04:33.854Z,169.32
2023-05-12T11:05:33.533Z,168.88
2023-05-12T11:06:34.254Z,168.89
2023-05-12T11:07:33.451Z,167.45
2023-05-12T11:08:33.993Z,169.15
2023-05-12T11:09:34.709Z,167.77
2023-05-12T11:10:33.652Z,167.33
2023-05-12T11:11:34.192Z,165.74
2023-05-12T11:12:33.485Z,165.50
2023-05-12T11:13:33.264Z,165.17
2023-05-12T11:14:33.253Z,163.81
2023-05-12T11:15:33.227Z,163.36
2023-05-12T11:16:33.308Z,162.68
2023-05-12T11:17:33.340Z,160.94
2023-05-12T11:18:33.241Z,160.97
2023-05-12T11:19:33.197Z,160.26
2023-05-12T11:20:33.205Z,160.55
2023-05-12T11:21:33.170Z,159.66
2023-05-12T11:22:33.181Z,158.81
2023-05-12T11:23:33.137Z,158.48
2023-05-12T11:24:33.177Z,156.57
2023-05-12T11:25:33.203Z,156.55
2023-05-12T11:26:33.214Z,156.02
2023-05-12T11:27:33.095Z,156.45
2023-05-12T11:28:33.098Z,155.24
2023-05-12T11:29:33.070Z,155.32
2023-05-12T11:30:33.130Z,153.01
2023-05-12T11:31:33.202Z,153.44
2023-05-12T11:32:33.170Z,153.33
2023-05-12T11:33:33.121Z,152.11
2023-05-12T11:34:33.158Z,151.67
2023-05-12T11:35:33.193Z,151.19
2023-05-12T11:36:33.199Z,150.59
2023-05-12T11:37:33.204Z,150.96
2023-05-12T11:38:33.243Z,150.31
2023-05-12T11:39:33.264Z,150.06
2023-05-12T11:40:33.280Z,150.07
2023-05-12T11:41:33.308Z,149.37
2023-05-12T11:42:33.314Z,148.79
2023-05-12T11:43:33.333Z,149.18
2023-05-12T11:44:33.352Z,150.05
2023-05-12T11:45:33.393Z,149.73
2023-05-12T11:46:33.394Z,149.16
2023-05-12T11:47:33.419Z,148.43
2023-05-12T11:48:33.434Z,148.37
2023-05-12T11:49:33.499Z,147.03
2023-05-12T11:50:33.491Z,147.21
2023-05-12T11:51:33.552Z,147.44
2023-05-12T11:52:33.608Z,146.67
2023-05-12T11:53:33.623Z,146.70
2023-05-12T11:54:33.653Z,147.61
2023-05-12T11:55:33.675Z,147.79
2023-05-12T11:56:33.801Z,147.74
2023-05-12T11:57:33.719Z,148.13
2023-05-12T11:58:35.608Z,149.25
2023-05-12T11:59:33.770Z,148.77
2023-05-12T12:00:33.782Z,148.22
2023-05-12T12:01:33.774Z,148.20
2023-05-12T12:02:33.918Z,147.23
2023-05-12T12:03:33.823Z,147.24
2023-05-12T12:04:33.948Z,146.36
2023-05-12T12:05:33.851Z,146.16
2023-05-12T12:06:33.865Z,146.95
2023-05-12T12:07:33.894Z,146.59
2023-05-12T12:08:33.893Z,146.70
2023-05-12T12:09:33.922Z,147.46
2023-05-12T12:10:33.934Z,147.47
2023-05-12T12:11:33.948Z,147.26
2023-05-12T12:12:33.965Z,147.32
2023-05-12T12:13:34.002Z,148.34
2023-05-12T12:14:34.013Z,147.13
2023-05-12T12:15:34.011Z,146.89
2023-05-12T12:16:34.056Z,146.18
2023-05-12T12:17:34.064Z,146.27
2023-05-12T12:18:34.060Z,146.40
2023-05-12T12:19:34.044Z,146.45
2023-05-12T12:20:33.975Z,146.83
2023-05-12T12:21:33.988Z,147.56
2023-05-12T12:22:33.981Z,147.49
2023-05-12T12:23:47.387Z,147.38
2023-05-12T12:24:34.944Z,147.42
2023-05-12T12:25:33.951Z,147.59
2023-05-12T12:26:33.907Z,147.72
2023-05-12T12:27:33.886Z,147.26
2023-05-12T12:28:33.876Z,147.48
2023-05-12T12:29:33.877Z,146.87
2023-05-12T12:30:33.855Z,146.74
2023-05-12T12:31:33.872Z,146.76
2023-05-12T12:32:33.877Z,147.14
2023-05-12T12:33:33.815Z,147.31
2023-05-12T12:34:33.792Z,146.45
2023-05-12T12:35:33.782Z,145.92
2023-05-12T12:36:33.765Z,146.02
2023-05-12T12:37:33.770Z,145.84
2023-05-12T12:38:33.733Z,145.38
2023-05-12T12:39:33.737Z,144.64
2023-05-12T12:40:33.726Z,144.98
2023-05-12T12:41:33.701Z,143.90
2023-05-12T12:42:33.695Z,143.62
2023-05-12T12:43:33.675Z,144.00
2023-05-12T12:44:33.655Z,143.96
2023-05-12T12:45:33.651Z,144.19
2023-05-12T12:46:33.659Z,143.61